createdAt,value
2019-03-16T00:00:45.714Z,77.36
2019-03-16T00:01:56.496Z,77.84
2019-03-16T00:02:46.716Z,77.84
2019-03-16T00:03:45.693Z,77.67
2019-03-16T00:04:45.677Z,77.98
2019-03-16T00:05:45.658Z,77.98
2019-03-16T00:06:45.651Z,78.70
2019-03-16T00:07:45.636Z,78.59
2019-03-16T00:08:45.638Z,78.91
2019-03-16T00:09:45.621Z,78.80
2019-03-16T00:10:45.602Z,78.08
2019-03-16T00:11:45.739Z,78.70
2019-03-16T00:12:45.599Z,79.01
2019-03-16T00:13:45.627Z,78.28
2019-03-16T00:14:45.559Z,78.35
2019-03-16T00:15:45.554Z,78.91
2019-03-16T00:16:45.539Z,78.28
2019-03-16T00:17:45.527Z,78.49
2019-03-16T00:18:45.518Z,78.80
2019-03-16T00:19:45.517Z,78.77
2019-03-16T00:20:45.496Z,78.70
2019-03-16T00:21:45.488Z,78.70
2019-03-16T00:22:45.470Z,79.01
2019-03-16T00:23:45.466Z,78.80
2019-03-16T00:24:45.460Z,78.45
2019-03-16T00:25:45.450Z,79.32
2019-03-16T00:26:45.427Z,79.22
2019-03-16T00:27:45.418Z,79.42
2019-03-16T00:28:45.420Z,79.22
2019-03-16T00:29:45.393Z,80.35
2019-03-16T00:30:45.400Z,79.83
2019-03-16T00:31:45.374Z,80.39
2019-03-16T00:32:45.359Z,79.97
2019-03-16T00:33:45.359Z,80.49
2019-03-16T00:34:45.358Z,79.66
2019-03-16T00:35:45.339Z,79.22
2019-03-16T00:36:45.329Z,79.01
2019-03-16T00:37:45.318Z,78.49
2019-03-16T00:38:45.296Z,78.59
2019-03-16T00:39:45.296Z,77.98
2019-03-16T00:40:45.293Z,78.28
2019-03-16T00:41:45.262Z,77.77
2019-03-16T00:42:45.288Z,78.25
2019-03-16T00:43:45.239Z,78.45
2019-03-16T00:44:45.228Z,77.87
2019-03-16T00:45:45.243Z,78.28
2019-03-16T00:46:45.210Z,78.39
2019-03-16T00:47:45.202Z,78.49
2019-03-16T00:48:45.204Z,78.28
2019-03-16T00:49:45.179Z,77.77
2019-03-16T00:50:45.160Z,77.98
2019-03-16T00:51:45.165Z,77.25
2019-03-16T00:52:45.138Z,78.08
2019-03-16T00:53:45.134Z,78.28
2019-03-16T00:54:45.130Z,78.18
2019-03-16T00:55:45.120Z,78.91
2019-03-16T00:56:45.117Z,78.53
2019-03-16T00:57:45.094Z,78.74
2019-03-16T00:58:45.073Z,78.18
2019-03-16T00:59:45.099Z,78.39
2019-03-16T01:00:45.057Z,78.28
2019-03-16T01:01:45.038Z,78.08
2019-03-16T01:02:45.034Z,78.22
2019-03-16T01:03:45.021Z,77.77
2019-03-16T01:04:45.005Z,78.18
2019-03-16T01:05:45.013Z,78.11
2019-03-16T01:06:45.003Z,78.32
2019-03-16T01:07:44.972Z,78.74
2019-03-16T01:08:44.963Z,78.98
2019-03-16T01:09:44.953Z,78.56
2019-03-16T01:10:44.946Z,79.19
2019-03-16T01:11:44.969Z,79.08
2019-03-16T01:12:44.923Z,79.29
2019-03-16T01:13:44.915Z,78.94
2019-03-16T01:14:44.899Z,78.46
2019-03-16T01:15:44.893Z,78.32
2019-03-16T01:16:44.873Z,78.11
2019-03-16T01:17:44.875Z,77.70
2019-03-16T01:18:44.856Z,78.74
2019-03-16T01:19:44.845Z,79.25
2019-03-16T01:20:44.842Z,79.39
2019-03-16T01:21:44.846Z,79.70
2019-03-16T01:22:44.809Z,78.94
2019-03-16T01:23:44.803Z,78.98
2019-03-16T01:24:44.790Z,79.70
2019-03-16T01:25:44.775Z,79.08
2019-03-16T01:26:44.764Z,78.98
2019-03-16T01:27:44.763Z,79.29
2019-03-16T01:28:44.763Z,79.46
2019-03-16T01:29:44.743Z,78.88
2019-03-16T01:30:44.722Z,79.39
2019-03-16T01:31:44.709Z,79.19
2019-03-16T01:32:44.732Z,79.39
2019-03-16T01:33:44.685Z,79.39
2019-03-16T01:34:44.688Z,79.80
2019-03-16T01:35:44.669Z,79.70
2019-03-16T01:36:44.673Z,79.08
2019-03-16T01:37:44.664Z,78.98
2019-03-16T01:38:44.644Z,79.39
2019-03-16T01:39:44.630Z,79.60
2019-03-16T01:40:44.608Z,79.70
2019-03-16T01:41:44.598Z,79.22
2019-03-16T01:42:44.593Z,80.46
2019-03-16T01:43:44.576Z,79.02
2019-03-16T01:44:44.583Z,80.26
2019-03-16T01:45:44.566Z,78.81
2019-03-16T01:46:44.541Z,78.98
2019-03-16T01:47:44.533Z,79.29
2019-03-16T01:48:44.523Z,79.08
2019-03-16T01:49:44.514Z,79.60
2019-03-16T01:50:44.561Z,79.08
2019-03-16T01:51:44.485Z,79.49
2019-03-16T01:52:44.477Z,79.70
2019-03-16T01:53:44.463Z,79.49
2019-03-16T01:54:44.462Z,78.77
2019-03-16T01:55:44.445Z,79.29
2019-03-16T01:56:44.456Z,80.43
2019-03-16T01:57:44.418Z,80.67
2019-03-16T01:58:44.409Z,80.57
2019-03-16T01:59:44.412Z,80.26
2019-03-16T02:00:44.406Z,80.32
2019-03-16T02:01:44.383Z,79.84
2019-03-16T02:02:54.600Z,80.15
2019-03-16T02:03:45.441Z,79.60
2019-03-16T02:04:44.341Z,80.63
2019-03-16T02:05:44.332Z,79.94
2019-03-16T02:06:44.327Z,80.77
2019-03-16T02:07:44.320Z,80.88
2019-03-16T02:08:44.298Z,80.98
2019-03-16T02:09:44.285Z,80.88
2019-03-16T02:10:44.279Z,81.19
2019-03-16T02:11:44.279Z,81.15
2019-03-16T02:12:44.275Z,80.63
2019-03-16T02:13:44.255Z,80.94
2019-03-16T02:14:44.230Z,81.29
2019-03-16T02:15:44.220Z,82.32
2019-03-16T02:16:44.208Z,81.91
2019-03-16T02:17:44.241Z,81.81
2019-03-16T02:18:44.244Z,82.84
2019-03-16T02:19:44.218Z,82.26
2019-03-16T02:20:44.237Z,82.46
2019-03-16T02:21:44.299Z,82.01
2019-03-16T02:22:44.142Z,81.60
2019-03-16T02:23:44.131Z,81.91
2019-03-16T02:24:44.131Z,82.43
2019-03-16T02:25:44.115Z,82.22
2019-03-16T02:26:44.104Z,81.81
2019-03-16T02:27:44.084Z,82.12
2019-03-16T02:28:44.077Z,82.84
2019-03-16T02:29:44.076Z,82.32
2019-03-16T02:30:44.064Z,82.43
2019-03-16T02:31:44.056Z,82.64
2019-03-16T02:32:44.037Z,83.05
2019-03-16T02:33:44.068Z,82.32
2019-03-16T02:34:44.015Z,81.60
2019-03-16T02:35:44.000Z,82.43
2019-03-16T02:36:43.992Z,82.18
2019-03-16T02:37:43.974Z,82.32
2019-03-16T02:38:43.963Z,82.32
2019-03-16T02:39:43.998Z,82.29
2019-03-16T02:40:44.010Z,82.60
2019-03-16T02:41:43.940Z,82.29
2019-03-16T02:42:43.926Z,81.98
2019-03-16T02:43:43.908Z,82.60
2019-03-16T02:44:43.900Z,82.70
2019-03-16T02:45:43.900Z,83.01
2019-03-16T02:46:43.888Z,83.84
2019-03-16T02:47:43.869Z,82.80
2019-03-16T02:48:43.863Z,83.32
2019-03-16T02:49:43.843Z,83.01
2019-03-16T02:50:43.847Z,82.70
2019-03-16T02:51:43.826Z,82.90
2019-03-16T02:52:43.821Z,83.73
2019-03-16T02:53:43.797Z,82.90
2019-03-16T02:54:43.791Z,84.05
2019-03-16T02:55:43.809Z,82.80
2019-03-16T02:56:43.770Z,82.39
2019-03-16T02:57:43.754Z,81.77
2019-03-16T02:58:43.759Z,81.98
2019-03-16T02:59:43.740Z,82.18
2019-03-16T03:00:43.742Z,83.42
2019-03-16T03:01:43.723Z,82.84
2019-03-16T03:02:43.707Z,83.22
2019-03-16T03:03:43.689Z,82.80
2019-03-16T03:04:45.961Z,82.70
2019-03-16T03:05:43.681Z,81.87
2019-03-16T03:06:43.670Z,82.90
2019-03-16T03:07:43.686Z,83.01
2019-03-16T03:08:43.656Z,82.70
2019-03-16T03:09:43.626Z,82.90
2019-03-16T03:10:43.627Z,82.70
2019-03-16T03:11:43.605Z,82.64
2019-03-16T03:12:43.592Z,82.74
2019-03-16T03:13:43.594Z,83.15
2019-03-16T03:14:43.578Z,83.84
2019-03-16T03:15:43.560Z,82.64
2019-03-16T03:16:43.555Z,83.15
2019-03-16T03:17:43.534Z,83.53
2019-03-16T03:18:43.544Z,83.01
2019-03-16T03:19:43.520Z,83.11
2019-03-16T03:20:43.501Z,83.32
2019-03-16T03:21:43.498Z,82.70
2019-03-16T03:22:43.483Z,82.18
2019-03-16T03:23:43.506Z,82.80
2019-03-16T03:24:44.397Z,81.87
2019-03-16T03:25:43.445Z,82.18
2019-03-16T03:26:43.451Z,82.04
2019-03-16T03:27:43.445Z,82.39
2019-03-16T03:28:43.410Z,81.87
2019-03-16T03:29:43.418Z,83.53
2019-03-16T03:30:43.423Z,82.50
2019-03-16T03:31:43.419Z,82.08
2019-03-16T03:32:43.463Z,82.39
2019-03-16T03:33:59.160Z,81.94
2019-03-16T03:34:44.378Z,82.90
2019-03-16T03:35:43.338Z,83.42
2019-03-16T03:36:43.349Z,83.01
2019-03-16T03:37:43.318Z,83.01
2019-03-16T03:38:43.325Z,83.11
2019-03-16T03:39:43.396Z,83.84
2019-03-16T03:40:43.307Z,82.29
2019-03-16T03:41:43.273Z,82.45
2019-03-16T03:42:43.281Z,81.73
2019-03-16T03:43:43.246Z,82.66
2019-03-16T03:44:43.241Z,82.45
2019-03-16T03:45:43.235Z,82.35
2019-03-16T03:46:43.225Z,83.39
2019-03-16T03:47:43.202Z,82.87
2019-03-16T03:48:43.201Z,82.90
2019-03-16T03:49:43.183Z,82.80
2019-03-16T03:50:43.190Z,83.49
2019-03-16T03:51:43.195Z,82.35
2019-03-16T03:52:43.147Z,82.29
2019-03-16T03:53:43.159Z,81.21
2019-03-16T03:54:43.127Z,81.73
2019-03-16T03:55:43.114Z,81.94
2019-03-16T03:56:43.108Z,81.94
2019-03-16T03:57:43.118Z,81.01
2019-03-16T03:58:43.083Z,81.94
2019-03-16T03:59:43.079Z,82.15
2019-03-16T04:00:43.070Z,81.42
2019-03-16T04:01:43.080Z,80.60
2019-03-16T04:02:43.068Z,81.32
2019-03-16T04:03:43.032Z,80.90
2019-03-16T04:04:43.018Z,80.90
2019-03-16T04:05:43.006Z,81.11
2019-03-16T04:06:43.010Z,81.42
2019-03-16T04:07:42.983Z,81.32
2019-03-16T04:08:42.976Z,80.90
2019-03-16T04:09:42.994Z,81.01
2019-03-16T04:10:42.957Z,80.60
2019-03-16T04:11:42.953Z,80.70
2019-03-16T04:12:42.928Z,81.46
2019-03-16T04:13:42.915Z,80.94
2019-03-16T04:14:42.905Z,81.01
2019-03-16T04:15:42.895Z,80.32
2019-03-16T04:16:42.906Z,79.77
2019-03-16T04:17:42.892Z,80.84
2019-03-16T04:18:42.860Z,80.94
2019-03-16T04:19:42.862Z,80.01
2019-03-16T04:20:42.841Z,80.74
2019-03-16T04:21:42.876Z,80.63
2019-03-16T04:22:42.964Z,81.15
2019-03-16T04:23:42.843Z,80.94
2019-03-16T04:24:45.207Z,80.74
2019-03-16T04:25:42.804Z,80.98
2019-03-16T04:26:42.771Z,81.35
2019-03-16T04:27:42.764Z,80.05
2019-03-16T04:28:42.750Z,80.63
2019-03-16T04:29:42.739Z,80.67
2019-03-16T04:30:42.733Z,80.15
2019-03-16T04:31:42.750Z,81.39
2019-03-16T04:32:42.708Z,80.77
2019-03-16T04:33:42.703Z,80.88
2019-03-16T04:34:45.072Z,79.74
2019-03-16T04:35:42.677Z,79.74
2019-03-16T04:36:42.659Z,80.15
2019-03-16T04:37:42.664Z,79.43
2019-03-16T04:38:42.652Z,80.77
2019-03-16T04:39:42.627Z,80.36
2019-03-16T04:40:44.598Z,80.57
2019-03-16T04:41:42.616Z,78.50
2019-03-16T04:42:42.594Z,79.63
2019-03-16T04:43:42.599Z,79.33
2019-03-16T04:44:42.571Z,79.02
2019-03-16T04:45:42.660Z,79.53
2019-03-16T04:46:42.549Z,79.53
2019-03-16T04:47:42.546Z,78.60
2019-03-16T04:48:42.561Z,79.53
2019-03-16T04:49:42.522Z,78.29
2019-03-16T04:50:42.504Z,79.53
2019-03-16T04:51:42.594Z,79.53
2019-03-16T04:52:42.483Z,79.02
2019-03-16T04:53:42.479Z,78.74
2019-03-16T04:54:42.479Z,79.57
2019-03-16T04:55:42.450Z,79.26
2019-03-16T04:56:42.450Z,79.05
2019-03-16T04:57:42.451Z,79.36
2019-03-16T04:58:42.417Z,79.77
2019-03-16T04:59:42.450Z,79.57
2019-03-16T05:00:42.395Z,79.05
2019-03-16T05:01:42.386Z,80.19
2019-03-16T05:02:42.483Z,79.77
2019-03-16T05:03:42.363Z,78.85
2019-03-16T05:04:42.968Z,78.53
2019-03-16T05:05:42.362Z,78.02
2019-03-16T05:06:42.335Z,78.12
2019-03-16T05:07:42.323Z,78.53
2019-03-16T05:08:42.309Z,79.57
2019-03-16T05:09:42.294Z,78.43
2019-03-16T05:10:42.285Z,78.22
2019-03-16T05:11:42.365Z,78.53
2019-03-16T05:12:42.271Z,78.64
2019-03-16T05:13:42.252Z,77.91
2019-03-16T05:14:42.329Z,77.91
2019-03-16T05:15:42.229Z,79.16
2019-03-16T05:16:42.217Z,78.64
2019-03-16T05:17:42.228Z,78.12
2019-03-16T05:18:42.199Z,78.02
2019-03-16T05:19:42.183Z,78.02
2019-03-16T05:20:42.175Z,78.78
2019-03-16T05:21:42.162Z,78.43
2019-03-16T05:22:42.184Z,78.53
2019-03-16T05:23:42.147Z,78.88
2019-03-16T05:24:42.134Z,79.16
2019-03-16T05:25:42.118Z,79.16
2019-03-16T05:26:42.107Z,78.43
2019-03-16T05:27:42.099Z,78.95
2019-03-16T05:28:42.098Z,79.60
2019-03-16T05:29:42.077Z,78.85
2019-03-16T05:30:42.064Z,79.36
2019-03-16T05:31:42.053Z,79.71
2019-03-16T05:32:42.044Z,79.40
2019-03-16T05:33:42.069Z,79.81
2019-03-16T05:34:55.584Z,79.19
2019-03-16T05:35:43.020Z,79.40
2019-03-16T05:36:42.005Z,80.43
2019-03-16T05:37:41.992Z,80.60
2019-03-16T05:38:41.977Z,80.33
2019-03-16T05:39:41.976Z,79.60
2019-03-16T05:40:41.953Z,80.33
2019-03-16T05:41:41.946Z,79.36
2019-03-16T05:42:41.930Z,80.71
2019-03-16T05:43:41.919Z,80.08
2019-03-16T05:44:41.934Z,80.74
2019-03-16T05:45:41.895Z,81.23
2019-03-16T05:46:41.894Z,81.99
2019-03-16T05:47:41.880Z,82.09
2019-03-16T05:48:41.865Z,80.91
2019-03-16T05:49:41.851Z,81.43
2019-03-16T05:50:41.869Z,82.36
2019-03-16T05:51:41.832Z,81.33
2019-03-16T05:52:41.818Z,82.05
2019-03-16T05:53:41.819Z,81.54
2019-03-16T05:54:41.796Z,81.64
2019-03-16T05:55:41.787Z,81.43
2019-03-16T05:56:41.788Z,81.37
2019-03-16T05:57:41.844Z,81.54
2019-03-16T05:58:41.752Z,81.95
2019-03-16T05:59:41.747Z,82.57
2019-03-16T06:00:41.733Z,81.33
2019-03-16T06:01:41.731Z,82.05
2019-03-16T06:02:41.719Z,81.84
2019-03-16T06:03:41.701Z,81.43
2019-03-16T06:04:41.687Z,82.46
2019-03-16T06:05:41.707Z,81.43
2019-03-16T06:06:41.673Z,82.57
2019-03-16T06:07:41.654Z,81.84
2019-03-16T06:08:41.668Z,81.95
2019-03-16T06:09:41.629Z,82.15
2019-03-16T06:10:41.721Z,84.01
2019-03-16T06:11:41.630Z,82.01
2019-03-16T06:12:41.604Z,82.64
2019-03-16T06:13:41.588Z,83.25
2019-03-16T06:14:41.573Z,83.15
2019-03-16T06:15:41.562Z,83.19
2019-03-16T06:16:41.550Z,82.84
2019-03-16T06:17:41.559Z,83.36
2019-03-16T06:18:41.538Z,82.64
2019-03-16T06:19:41.518Z,82.74
2019-03-16T06:20:41.519Z,83.15
2019-03-16T06:21:41.496Z,82.32
2019-03-16T06:22:41.483Z,82.64
2019-03-16T06:23:41.492Z,82.64
2019-03-16T06:24:41.469Z,82.50
2019-03-16T06:25:41.451Z,81.98
2019-03-16T06:26:41.442Z,81.87
2019-03-16T06:27:41.442Z,82.08
2019-03-16T06:28:41.424Z,82.35
2019-03-16T06:29:41.417Z,81.87
2019-03-16T06:30:41.402Z,82.29
2019-03-16T06:31:41.386Z,82.60
2019-03-16T06:32:41.388Z,82.08
2019-03-16T06:33:41.374Z,82.50
2019-03-16T06:34:41.353Z,82.29
2019-03-16T06:35:41.363Z,82.97
2019-03-16T06:36:41.335Z,84.00
2019-03-16T06:37:41.323Z,83.49
2019-03-16T06:38:41.315Z,82.97
2019-03-16T06:39:41.301Z,82.70
2019-03-16T06:40:41.289Z,81.94
2019-03-16T06:41:43.426Z,82.15
2019-03-16T06:42:41.267Z,82.97
2019-03-16T06:43:41.255Z,82.76
2019-03-16T06:44:41.253Z,81.73
2019-03-16T06:45:41.234Z,82.97
2019-03-16T06:46:41.221Z,82.15
2019-03-16T06:47:41.240Z,81.01
2019-03-16T06:48:41.208Z,81.38
2019-03-16T06:49:41.201Z,82.83
2019-03-16T06:50:41.173Z,82.31
2019-03-16T06:51:41.223Z,81.70
2019-03-16T06:52:41.166Z,82.52
2019-03-16T06:53:41.155Z,81.49
2019-03-16T06:54:41.131Z,82.73
2019-03-16T06:55:41.140Z,81.90
2019-03-16T06:56:41.108Z,80.73
2019-03-16T06:57:41.118Z,81.35
2019-03-16T06:58:41.094Z,81.04
2019-03-16T06:59:41.085Z,80.73
2019-03-16T07:00:41.147Z,81.24
2019-03-16T07:01:41.136Z,81.72
2019-03-16T07:02:41.053Z,81.24
2019-03-16T07:03:41.032Z,80.93
2019-03-16T07:04:41.049Z,80.58
2019-03-16T07:05:41.009Z,80.52
2019-03-16T07:06:41.005Z,81.24
2019-03-16T07:07:40.989Z,81.14
2019-03-16T07:08:40.975Z,80.32
2019-03-16T07:09:40.974Z,80.62
2019-03-16T07:10:40.984Z,80.73
2019-03-16T07:11:40.941Z,81.14
2019-03-16T07:12:40.930Z,80.90
2019-03-16T07:13:40.927Z,80.79
2019-03-16T07:14:40.935Z,81.41
2019-03-16T07:15:40.897Z,80.79
2019-03-16T07:16:40.900Z,80.38
2019-03-16T07:17:40.878Z,80.18
2019-03-16T07:18:40.864Z,80.79
2019-03-16T07:19:40.862Z,80.52
2019-03-16T07:20:40.948Z,80.38
2019-03-16T07:21:40.831Z,81.31
2019-03-16T07:22:40.832Z,79.35
2019-03-16T07:23:40.812Z,78.77
2019-03-16T07:24:40.799Z,79.66
2019-03-16T07:25:40.796Z,78.66
2019-03-16T07:26:40.788Z,78.31
2019-03-16T07:27:40.764Z,78.63
2019-03-16T07:28:40.753Z,77.80
2019-03-16T07:29:40.748Z,77.28
2019-03-16T07:30:40.744Z,78.01
2019-03-16T07:31:40.738Z,76.98
2019-03-16T07:32:40.716Z,76.56
2019-03-16T07:33:40.697Z,77.91
2019-03-16T07:34:40.686Z,77.76
2019-03-16T07:35:40.673Z,75.53
2019-03-16T07:36:40.695Z,73.77
2019-03-16T07:37:40.775Z,73.68
2019-03-16T07:38:40.642Z,75.43
2019-03-16T07:39:40.636Z,76.98
2019-03-16T07:40:40.619Z,75.43
2019-03-16T07:41:40.609Z,76.25
2019-03-16T07:42:40.609Z,75.84
2019-03-16T07:43:40.626Z,76.87
2019-03-16T07:44:40.582Z,77.80
2019-03-16T07:45:40.572Z,76.04
2019-03-16T07:46:40.553Z,76.46
2019-03-16T07:47:40.542Z,76.98
2019-03-16T07:48:40.535Z,77.59
2019-03-16T07:49:40.533Z,78.35
2019-03-16T07:50:40.508Z,79.49
2019-03-16T07:51:40.501Z,78.45
2019-03-16T07:52:40.501Z,79.80
2019-03-16T07:53:40.496Z,78.91
2019-03-16T07:54:40.474Z,79.22
2019-03-16T07:55:42.244Z,79.42
2019-03-16T07:56:40.442Z,80.76
2019-03-16T07:57:41.086Z,79.77
2019-03-16T07:58:40.418Z,80.29
2019-03-16T07:59:40.421Z,80.70
2019-03-16T08:00:40.407Z,81.15
2019-03-16T08:01:40.393Z,82.29
2019-03-16T08:02:40.376Z,81.87
2019-03-16T08:03:40.389Z,82.08
2019-03-16T08:04:43.380Z,81.98
2019-03-16T08:05:40.347Z,83.67
2019-03-16T08:06:40.334Z,82.95
2019-03-16T08:07:40.324Z,83.73
2019-03-16T08:08:40.321Z,84.91
2019-03-16T08:09:40.313Z,84.56
2019-03-16T08:10:40.287Z,84.91
2019-03-16T08:11:40.277Z,85.11
2019-03-16T08:12:40.272Z,84.87
2019-03-16T08:13:40.350Z,83.94
2019-03-16T08:14:40.250Z,83.87
2019-03-16T08:15:40.230Z,84.70
2019-03-16T08:16:40.227Z,84.60
2019-03-16T08:17:40.209Z,85.02
2019-03-16T08:18:40.197Z,84.39
2019-03-16T08:19:40.259Z,84.81
2019-03-16T08:20:40.178Z,86.67
2019-03-16T08:21:40.166Z,88.01
2019-03-16T08:22:40.160Z,86.88
2019-03-16T08:23:40.227Z,86.36
2019-03-16T08:24:40.130Z,87.81
2019-03-16T08:25:40.145Z,88.12
2019-03-16T08:26:40.109Z,88.22
2019-03-16T08:27:53.041Z,88.64
2019-03-16T08:28:41.098Z,88.53
2019-03-16T08:29:40.078Z,88.57
2019-03-16T08:30:40.122Z,87.74
2019-03-16T08:31:40.062Z,88.26
2019-03-16T08:32:40.050Z,88.26
2019-03-16T08:33:40.032Z,88.57
2019-03-16T08:34:40.021Z,89.40
2019-03-16T08:35:40.014Z,90.64
2019-03-16T08:36:40.019Z,88.51
2019-03-16T08:37:39.996Z,89.65
2019-03-16T08:38:40.009Z,89.13
2019-03-16T08:39:39.968Z,89.23
2019-03-16T08:40:39.955Z,91.41
2019-03-16T08:41:39.946Z,91.20
2019-03-16T08:42:39.934Z,90.58
2019-03-16T08:43:39.959Z,90.23
2019-03-16T08:44:39.923Z,91.09
2019-03-16T08:45:39.910Z,91.30
2019-03-16T08:46:39.890Z,91.82
2019-03-16T08:47:39.880Z,91.61
2019-03-16T08:48:39.866Z,92.24
2019-03-16T08:49:39.868Z,92.13
2019-03-16T08:50:39.859Z,92.81
2019-03-16T08:51:39.843Z,91.88
2019-03-16T08:52:39.885Z,91.82
2019-03-16T08:53:39.818Z,91.20
2019-03-16T08:54:39.856Z,91.93
2019-03-16T08:55:39.792Z,90.99
2019-03-16T08:56:39.926Z,92.34
2019-03-16T08:57:39.810Z,92.61
2019-03-16T08:58:39.755Z,91.88
2019-03-16T08:59:39.749Z,92.19
2019-03-16T09:00:39.747Z,92.19
2019-03-16T09:01:39.726Z,92.50
2019-03-16T09:02:39.711Z,92.71
2019-03-16T09:03:43.917Z,91.36
2019-03-16T09:04:39.691Z,91.78
2019-03-16T09:05:39.696Z,92.09
2019-03-16T09:06:39.672Z,90.95
2019-03-16T09:07:39.657Z,91.99
2019-03-16T09:08:39.648Z,91.57
2019-03-16T09:09:39.638Z,91.26
2019-03-16T09:10:39.638Z,91.88
2019-03-16T09:11:39.636Z,92.19
2019-03-16T09:12:39.626Z,92.09
2019-03-16T09:13:39.589Z,91.67
2019-03-16T09:14:39.621Z,91.99
2019-03-16T09:15:39.575Z,92.40
2019-03-16T09:16:39.558Z,92.15
2019-03-16T09:17:39.656Z,92.50
2019-03-16T09:18:39.540Z,92.67
2019-03-16T09:19:39.554Z,93.49
2019-03-16T09:20:39.519Z,92.36
2019-03-16T09:21:39.506Z,92.05
2019-03-16T09:22:39.496Z,91.84
2019-03-16T09:23:39.590Z,91.94
2019-03-16T09:24:39.475Z,92.81
2019-03-16T09:25:39.462Z,93.80
2019-03-16T09:26:39.495Z,93.33
2019-03-16T09:27:39.444Z,93.33
2019-03-16T09:39:48.050Z,94.73
2019-03-16T09:40:48.031Z,93.91
2019-03-16T09:41:48.030Z,94.22
2019-03-16T09:42:48.010Z,93.91
2019-03-16T09:43:47.999Z,93.80
2019-03-16T09:44:47.998Z,94.07
2019-03-16T09:45:48.005Z,94.43
2019-03-16T09:46:47.970Z,94.18
2019-03-16T09:47:47.952Z,93.66
2019-03-16T09:48:47.946Z,93.14
2019-03-16T09:49:47.938Z,93.76
2019-03-16T09:50:47.938Z,93.97
2019-03-16T09:51:47.915Z,93.97
2019-03-16T09:52:47.902Z,94.03
2019-03-16T09:53:47.887Z,93.62
2019-03-16T09:54:47.879Z,92.79
2019-03-16T09:55:47.934Z,91.55
2019-03-16T09:57:00.217Z,92.48
2019-03-16T09:57:48.855Z,92.48
2019-03-16T09:58:47.832Z,92.68
2019-03-16T09:59:47.829Z,93.26
2019-03-16T10:00:47.826Z,93.26
2019-03-16T10:01:47.798Z,92.33
2019-03-16T10:02:47.799Z,90.26
2019-03-16T10:03:47.776Z,89.38
2019-03-16T10:04:47.768Z,90.41
2019-03-16T10:05:47.771Z,90.31
2019-03-16T10:06:47.745Z,90.83
2019-03-16T10:07:47.747Z,92.07
2019-03-16T10:08:47.722Z,91.96
2019-03-16T10:09:47.729Z,90.93
2019-03-16T10:10:47.704Z,90.00
2019-03-16T10:11:47.689Z,90.00
2019-03-16T10:12:47.675Z,90.93
2019-03-16T10:13:47.667Z,89.89
2019-03-16T10:14:47.683Z,92.07
2019-03-16T10:15:47.643Z,90.93
2019-03-16T10:16:47.631Z,90.87
2019-03-16T10:17:47.627Z,88.90
2019-03-16T10:18:47.610Z,90.66
2019-03-16T10:19:47.605Z,92.21
2019-03-16T10:20:47.621Z,92.32
2019-03-16T10:21:47.585Z,92.38
2019-03-16T10:22:47.566Z,93.30
2019-03-16T10:23:47.556Z,93.47
2019-03-16T10:24:47.546Z,92.89
2019-03-16T10:25:47.543Z,93.05
2019-03-16T10:26:47.632Z,92.44
2019-03-16T10:27:47.511Z,93.05
2019-03-16T10:28:47.502Z,93.37
2019-03-16T10:29:47.490Z,92.60
2019-03-16T10:30:47.484Z,91.88
2019-03-16T10:31:47.469Z,92.08
2019-03-16T10:32:47.497Z,92.50
2019-03-16T10:33:47.445Z,92.76
2019-03-16T10:34:47.436Z,92.46
2019-03-16T10:35:47.424Z,92.08
2019-03-16T10:36:47.425Z,91.98
2019-03-16T10:37:47.401Z,91.98
